TimeCST,TemperatureF,Dew PointF,Humidity,Sea Level PressureIn,VisibilityMPH,Wind Direction,Wind SpeedMPH,Gust SpeedMPH,PrecipitationIn,Events,Conditions,WindDirDegrees,DateUTC
12:55 AM,24.8,14.0,64,30.14,10.0,SSW,9.2,-,N/A,,Clear,200,2012-11-28 06:55:00
1:15 AM,24.8,14.0,64,30.13,10.0,SSW,4.6,-,N/A,,Clear,210,2012-11-28 07:15:00
1:35 AM,26.6,10.4,51,30.13,10.0,Calm,Calm,-,N/A,,Clear,0,2012-11-28 07:35:00
1:55 AM,26.6,12.2,55,30.12,10.0,SSW,3.5,-,N/A,,Clear,200,2012-11-28 07:55:00
2:15 AM,23.0,14.0,68,30.11,10.0,South,8.1,-,N/A,,Clear,190,2012-11-28 08:15:00
2:35 AM,24.8,14.0,64,30.11,10.0,SSE,4.6,-,N/A,,Clear,160,2012-11-28 08:35:00
2:55 AM,24.8,14.0,64,30.10,10.0,SW,5.8,-,N/A,,Clear,220,2012-11-28 08:55:00
3:15 AM,26.6,14.0,59,30.10,10.0,SSW,3.5,-,N/A,,Clear,210,2012-11-28 09:15:00
3:35 AM,24.8,14.0,64,30.09,10.0,WSW,3.5,-,N/A,,Clear,240,2012-11-28 09:35:00
3:55 AM,26.6,14.0,59,30.08,10.0,Calm,Calm,-,N/A,,Clear,0,2012-11-28 09:55:00
4:15 AM,26.6,14.0,59,30.07,10.0,SSW,3.5,-,N/A,,Clear,210,2012-11-28 10:15:00
4:35 AM,24.8,14.0,64,30.06,10.0,WSW,4.6,-,N/A,,Clear,240,2012-11-28 10:35:00
4:55 AM,24.8,15.8,69,30.05,10.0,SW,6.9,-,N/A,,Clear,230,2012-11-28 10:55:00
5:15 AM,24.8,15.8,69,30.05,10.0,SSW,3.5,-,N/A,,Clear,210,2012-11-28 11:15:00
5:35 AM,26.6,14.0,59,30.05,10.0,Calm,Calm,-,N/A,,Clear,0,2012-11-28 11:35:00
5:55 AM,26.6,15.8,64,30.04,10.0,SSE,3.5,-,N/A,,Clear,160,2012-11-28 11:55:00
6:15 AM,26.6,15.8,64,30.03,10.0,Calm,Calm,-,N/A,,Clear,0,2012-11-28 12:15:00
6:55 AM,32.0,14.0,48,30.04,10.0,South,3.5,-,N/A,,Clear,170,2012-11-28 12:55:00
7:15 AM,28.4,17.6,64,30.03,10.0,South,8.1,-,N/A,,Clear,190,2012-11-28 13:15:00
7:35 AM,28.4,17.6,64,30.03,10.0,SSW,4.6,-,N/A,,Clear,200,2012-11-28 13:35:00
7:55 AM,28.4,17.6,64,30.02,10.0,SSW,8.1,-,N/A,,Clear,200,2012-11-28 13:55:00
8:15 AM,28.4,17.6,64,30.02,10.0,SSW,6.9,-,N/A,,Clear,210,2012-11-28 14:15:00
8:35 AM,32.0,15.8,51,30.02,10.0,West,5.8,-,N/A,,Clear,280,2012-11-28 14:35:00
8:55 AM,32.0,15.8,51,30.02,10.0,Calm,Calm,-,N/A,,Clear,0,2012-11-28 14:55:00
9:15 AM,32.0,19.4,60,30.03,10.0,Calm,Calm,-,N/A,,Clear,0,2012-11-28 15:15:00
9:35 AM,35.6,19.4,52,30.03,10.0,South,4.6,-,N/A,,Clear,170,2012-11-28 15:35:00
9:55 AM,39.2,23.0,52,30.03,10.0,Calm,Calm,-,N/A,,Clear,0,2012-11-28 15:55:00
10:15 AM,41.0,23.0,49,30.03,10.0,Calm,Calm,-,N/A,,Clear,0,2012-11-28 16:15:00
10:35 AM,41.0,24.8,53,30.03,10.0,West,3.5,-,N/A,,Clear,260,2012-11-28 16:35:00
10:55 AM,46.4,23.0,40,30.03,10.0,West,3.5,-,N/A,,Clear,260,2012-11-28 16:55:00
11:15 AM,42.8,26.6,53,30.02,10.0,Calm,Calm,-,N/A,,Clear,0,2012-11-28 17:15:00
11:35 AM,44.6,28.4,53,30.02,10.0,Calm,Calm,-,N/A,,Clear,0,2012-11-28 17:35:00
11:55 AM,48.2,24.8,40,30.01,10.0,WSW,3.5,-,N/A,,Clear,240,2012-11-28 17:55:00
12:15 PM,50.0,23.0,35,30.01,10.0,West,4.6,-,N/A,,Clear,270,2012-11-28 18:15:00
12:35 PM,50.0,23.0,35,30.01,10.0,NW,3.5,-,N/A,,Clear,310,2012-11-28 18:35:00
12:55 PM,50.0,24.8,37,30.01,10.0,WNW,3.5,-,N/A,,Clear,290,2012-11-28 18:55:00
1:15 PM,48.2,26.6,43,30.00,10.0,WNW,3.5,-,N/A,,Clear,300,2012-11-28 19:15:00
1:35 PM,48.2,24.8,40,30.00,10.0,West,5.8,-,N/A,,Clear,270,2012-11-28 19:35:00
1:55 PM,48.2,28.4,46,30.00,10.0,West,4.6,-,N/A,,Clear,260,2012-11-28 19:55:00
2:35 PM,50.0,26.6,40,29.99,10.0,Calm,Calm,-,N/A,,Clear,0,2012-11-28 20:35:00
2:55 PM,51.8,26.6,38,29.98,10.0,Calm,Calm,-,N/A,,Clear,0,2012-11-28 20:55:00
3:15 PM,51.8,24.8,35,29.98,10.0,NW,3.5,-,N/A,,Clear,310,2012-11-28 21:15:00
3:35 PM,51.8,26.6,38,29.98,10.0,Calm,Calm,-,N/A,,Clear,0,2012-11-28 21:35:00
3:55 PM,50.0,30.2,47,29.98,10.0,East,3.5,-,N/A,,Clear,100,2012-11-28 21:55:00
4:15 PM,48.2,26.6,43,29.98,10.0,WNW,4.6,-,N/A,,Clear,300,2012-11-28 22:15:00
4:35 PM,41.0,28.4,61,29.99,10.0,Calm,Calm,-,N/A,,Clear,0,2012-11-28 22:35:00
4:55 PM,37.4,26.6,65,29.99,10.0,West,3.5,-,N/A,,Clear,260,2012-11-28 22:55:00
5:15 PM,37.4,24.8,60,29.99,10.0,SW,4.6,-,N/A,,Clear,230,2012-11-28 23:15:00
5:35 PM,35.6,24.8,65,29.99,10.0,SSW,9.2,-,N/A,,Clear,210,2012-11-28 23:35:00
5:55 PM,35.6,23.0,60,29.98,10.0,SSW,12.7,-,N/A,,Clear,200,2012-11-28 23:55:00
6:15 PM,35.6,23.0,60,29.98,10.0,SW,6.9,-,N/A,,Clear,230,2012-11-29 00:15:00
6:35 PM,35.6,23.0,60,29.98,10.0,South,4.6,-,N/A,,Clear,190,2012-11-29 00:35:00
6:55 PM,35.6,23.0,60,29.99,10.0,Calm,Calm,-,N/A,,Clear,0,2012-11-29 00:55:00
7:15 PM,35.6,21.2,56,29.99,10.0,South,9.2,-,N/A,,Clear,180,2012-11-29 01:15:00
7:35 PM,33.8,21.2,60,29.98,10.0,South,4.6,-,N/A,,Clear,180,2012-11-29 01:35:00
7:55 PM,32.0,21.2,64,29.97,10.0,WSW,4.6,-,N/A,,Clear,240,2012-11-29 01:55:00
8:35 PM,32.0,19.4,60,29.97,10.0,SW,4.6,-,N/A,,Clear,220,2012-11-29 02:35:00
8:55 PM,33.8,17.6,52,29.97,10.0,Calm,Calm,-,N/A,,Clear,0,2012-11-29 02:55:00
9:55 PM,32.0,19.4,60,29.95,10.0,SW,6.9,-,N/A,,Clear,230,2012-11-29 03:55:00
10:15 PM,32.0,17.6,55,29.95,10.0,SSW,3.5,-,N/A,,Clear,210,2012-11-29 04:15:00
10:35 PM,32.0,17.6,55,29.95,10.0,Calm,Calm,-,N/A,,Clear,0,2012-11-29 04:35:00
10:55 PM,32.0,17.6,55,29.95,10.0,SSW,8.1,-,N/A,,Clear,200,2012-11-29 04:55:00
11:15 PM,32.0,17.6,55,29.94,10.0,SSW,3.5,-,N/A,,Clear,210,2012-11-29 05:15:00
11:35 PM,32.0,17.6,55,29.94,10.0,West,6.9,-,N/A,,Clear,260,2012-11-29 05:35:00
11:55 PM,28.4,17.6,64,29.94,10.0,Calm,Calm,-,N/A,,Clear,0,2012-11-29 05:55:00